createdAt,value
2017-11-15T00:00:33.425Z,17.77
2017-11-15T00:02:59.544Z,17.27
2017-11-15T00:05:25.640Z,17.40
2017-11-15T00:07:51.727Z,18.40
2017-11-15T00:10:17.908Z,19.60
2017-11-15T00:12:44.021Z,21.90
2017-11-15T00:15:10.122Z,24.27
2017-11-15T00:17:36.265Z,17.90
2017-11-15T00:20:02.409Z,18.87
2017-11-15T00:22:35.705Z,23.40
2017-11-15T00:25:01.876Z,17.23
2017-11-15T00:27:27.962Z,20.93
2017-11-15T00:29:54.211Z,24.07
2017-11-15T00:32:21.057Z,18.67
2017-11-15T00:34:47.146Z,20.20
2017-11-15T00:37:13.253Z,19.43
2017-11-15T00:39:40.195Z,25.07
2017-11-15T00:42:06.293Z,23.17
2017-11-15T00:44:32.396Z,23.53
2017-11-15T00:46:58.564Z,21.53
2017-11-15T00:49:24.689Z,22.00
2017-11-15T00:51:50.778Z,24.63
2017-11-15T00:54:16.974Z,24.17
2017-11-15T00:56:43.101Z,23.20
2017-11-15T00:59:09.197Z,22.13
2017-11-15T01:01:35.281Z,19.97
2017-11-15T01:04:01.390Z,23.90
2017-11-15T01:06:28.243Z,19.70
2017-11-15T01:08:55.072Z,21.00
2017-11-15T01:11:21.302Z,21.10
2017-11-15T01:13:49.461Z,19.47
2017-11-15T01:16:15.570Z,21.30
2017-11-15T01:18:41.708Z,21.33
2017-11-15T01:21:08.582Z,22.27
2017-11-15T01:23:34.766Z,26.00
2017-11-15T01:26:00.886Z,25.20
2017-11-15T01:28:27.008Z,23.90
2017-11-15T01:30:53.108Z,30.70
2017-11-15T01:33:20.465Z,19.87
2017-11-15T01:35:46.590Z,20.90
2017-11-15T01:38:12.739Z,22.13
2017-11-15T01:40:38.957Z,19.50
2017-11-15T01:43:05.072Z,18.73
2017-11-15T01:45:31.160Z,19.30
2017-11-15T01:47:58.103Z,20.40
2017-11-15T01:50:24.234Z,21.80
2017-11-15T01:52:50.322Z,20.27
2017-11-15T01:55:16.513Z,21.80
2017-11-15T01:57:42.641Z,20.43
2017-11-15T02:00:08.743Z,19.53
2017-11-15T02:02:34.852Z,19.70
2017-11-15T02:05:00.978Z,20.47
2017-11-15T02:07:27.082Z,19.80
2017-11-15T02:09:53.240Z,20.50
2017-11-15T02:12:19.332Z,21.17
2017-11-15T02:14:45.412Z,20.50
2017-11-15T02:17:11.541Z,19.47
2017-11-15T02:19:37.699Z,21.83
2017-11-15T02:22:03.826Z,21.37
2017-11-15T02:24:29.965Z,22.00
2017-11-15T02:26:56.047Z,21.70
2017-11-15T02:29:22.134Z,20.33
2017-11-15T02:31:48.242Z,21.77
2017-11-15T02:34:14.345Z,20.50
2017-11-15T02:36:41.192Z,22.50
2017-11-15T02:39:08.109Z,22.40
2017-11-15T02:41:34.210Z,23.40
2017-11-15T02:44:00.296Z,24.20
2017-11-15T02:46:26.468Z,24.10
2017-11-15T02:48:53.304Z,25.67
2017-11-15T02:51:19.413Z,27.00
2017-11-15T02:53:45.521Z,27.57
2017-11-15T02:56:11.646Z,27.87
2017-11-15T02:58:38.457Z,28.57
2017-11-15T03:01:04.590Z,29.77
2017-11-15T03:03:30.677Z,27.30
2017-11-15T03:05:56.792Z,29.47
2017-11-15T03:08:22.921Z,27.93
2017-11-15T03:10:49.112Z,29.00
2017-11-15T03:13:15.223Z,28.50
2017-11-15T03:15:42.185Z,28.40
2017-11-15T03:18:08.307Z,26.83
2017-11-15T03:20:35.172Z,29.03
2017-11-15T03:23:02.030Z,27.73
2017-11-15T03:25:28.875Z,26.87
2017-11-15T03:27:55.714Z,27.80
2017-11-15T03:30:21.909Z,28.67
2017-11-15T03:32:48.012Z,26.43
2017-11-15T03:35:14.249Z,25.47
2017-11-15T03:37:41.127Z,26.53
2017-11-15T03:40:07.246Z,25.30
2017-11-15T03:42:34.067Z,25.37
2017-11-15T03:45:00.185Z,25.03
2017-11-15T03:47:26.277Z,24.77
2017-11-15T03:49:53.121Z,24.23
2017-11-15T03:52:19.273Z,26.40
2017-11-15T03:54:46.096Z,23.17
2017-11-15T03:57:12.209Z,25.20
2017-11-15T03:59:38.317Z,23.57
2017-11-15T04:02:04.444Z,24.60
2017-11-15T04:04:30.553Z,22.37
2017-11-15T04:06:56.665Z,23.30
2017-11-15T04:09:22.752Z,22.83
2017-11-15T04:11:49.608Z,22.73
2017-11-15T04:14:16.452Z,22.87
2017-11-15T04:16:42.548Z,23.47
2017-11-15T04:19:08.666Z,24.03
2017-11-15T04:21:34.793Z,22.63
2017-11-15T04:24:00.881Z,23.10
2017-11-15T04:26:27.156Z,21.90
2017-11-15T04:28:54.032Z,22.40
2017-11-15T04:31:20.120Z,22.77
2017-11-15T04:33:46.193Z,21.13
2017-11-15T04:36:13.022Z,22.23
2017-11-15T04:38:39.106Z,23.17
2017-11-15T04:41:05.227Z,22.30
2017-11-15T04:43:31.336Z,21.30
2017-11-15T04:45:57.530Z,23.13
2017-11-15T04:48:23.739Z,21.70
2017-11-15T04:50:50.631Z,22.03
2017-11-15T04:53:16.722Z,22.30
2017-11-15T04:55:42.823Z,21.63
2017-11-15T04:58:08.955Z,23.50
2017-11-15T05:00:35.125Z,21.97
2017-11-15T05:03:01.234Z,21.60
2017-11-15T05:05:27.354Z,22.67
2017-11-15T05:07:53.447Z,21.93
2017-11-15T05:10:19.549Z,21.73
2017-11-15T05:12:45.670Z,22.20
2017-11-15T05:15:11.784Z,22.63
2017-11-15T05:17:37.898Z,22.60
2017-11-15T05:20:04.771Z,23.27
2017-11-15T05:22:30.866Z,23.30
2017-11-15T05:24:56.963Z,23.27
2017-11-15T05:27:23.143Z,24.53
2017-11-15T05:29:49.256Z,23.67
2017-11-15T05:32:15.359Z,23.50
2017-11-15T05:34:41.496Z,23.63
2017-11-15T05:37:07.594Z,22.93
2017-11-15T05:39:33.688Z,22.40
2017-11-15T05:41:59.921Z,24.47
2017-11-15T05:44:26.037Z,24.33
2017-11-15T05:46:52.863Z,23.27
2017-11-15T05:49:18.975Z,23.30
2017-11-15T05:51:45.077Z,23.27
2017-11-15T05:54:11.894Z,24.20
2017-11-15T05:56:38.006Z,24.20
2017-11-15T05:59:04.111Z,22.17
2017-11-15T06:01:30.227Z,25.00
2017-11-15T06:03:56.360Z,25.30
2017-11-15T06:06:22.457Z,24.90
2017-11-15T06:08:48.558Z,25.60
2017-11-15T06:11:15.446Z,24.10
2017-11-15T06:13:41.542Z,25.03
2017-11-15T06:16:08.477Z,23.83
2017-11-15T06:18:34.628Z,24.73
2017-11-15T06:21:00.671Z,23.50
2017-11-15T06:23:27.581Z,23.83
2017-11-15T06:25:53.674Z,24.30
2017-11-15T06:28:20.512Z,24.33
2017-11-15T06:30:46.713Z,23.87
2017-11-15T06:33:12.901Z,24.47
2017-11-15T06:35:39.668Z,23.07
2017-11-15T06:38:05.818Z,24.43
2017-11-15T06:40:31.947Z,24.43
2017-11-15T06:42:58.088Z,24.20
2017-11-15T06:45:24.199Z,25.80
2017-11-15T06:47:51.055Z,25.40
2017-11-15T06:50:17.880Z,26.73
2017-11-15T06:52:43.984Z,26.37
2017-11-15T06:55:10.111Z,27.03
2017-11-15T06:57:36.246Z,26.40
2017-11-15T07:00:02.345Z,25.97
2017-11-15T07:02:28.498Z,26.00
2017-11-15T07:04:55.362Z,25.37
2017-11-15T07:07:22.198Z,25.40
2017-11-15T07:09:48.329Z,26.17
2017-11-15T07:12:14.425Z,26.13
2017-11-15T07:14:40.514Z,28.00
2017-11-15T07:17:06.747Z,26.00
2017-11-15T07:19:32.854Z,29.00
2017-11-15T07:21:58.966Z,27.00
2017-11-15T07:24:25.092Z,28.50
2017-11-15T07:26:51.975Z,28.67
2017-11-15T07:29:18.083Z,28.23
2017-11-15T07:31:44.219Z,28.20
2017-11-15T07:34:11.086Z,27.50
2017-11-15T07:36:37.186Z,26.70
2017-11-15T07:39:03.325Z,25.10
2017-11-15T07:41:29.418Z,25.40
2017-11-15T07:43:55.556Z,25.77
2017-11-15T07:46:21.732Z,25.20
2017-11-15T07:48:47.834Z,26.40
2017-11-15T07:51:13.942Z,24.13
2017-11-15T07:53:40.829Z,25.77
2017-11-15T07:56:06.961Z,24.87
2017-11-15T07:58:33.111Z,23.77
2017-11-15T08:00:59.248Z,23.77
2017-11-15T08:03:25.356Z,25.00
2017-11-15T08:05:51.460Z,26.03
2017-11-15T08:08:17.601Z,22.90
2017-11-15T08:10:43.694Z,24.93
2017-11-15T08:13:09.835Z,29.03
2017-11-15T08:15:36.000Z,24.53
2017-11-15T08:18:02.227Z,29.43
2017-11-15T08:20:28.338Z,28.13
2017-11-15T08:22:54.495Z,25.37
2017-11-15T08:25:20.598Z,25.20
2017-11-15T08:27:47.456Z,23.30
2017-11-15T08:30:13.598Z,23.83
2017-11-15T08:32:39.708Z,22.90
2017-11-15T08:35:05.855Z,25.10
2017-11-15T08:37:32.795Z,24.60
2017-11-15T08:39:58.921Z,23.10
2017-11-15T08:42:25.035Z,22.90
2017-11-15T08:44:51.384Z,26.50
2017-11-15T08:47:18.083Z,23.20
2017-11-15T08:49:44.944Z,25.03
2017-11-15T08:52:11.072Z,24.63
2017-11-15T08:54:37.936Z,22.93
2017-11-15T08:57:04.851Z,23.43
2017-11-15T08:59:30.930Z,22.80
2017-11-15T09:01:57.116Z,22.13
2017-11-15T09:04:23.341Z,21.13
2017-11-15T09:06:49.467Z,19.90
2017-11-15T09:09:15.931Z,20.27
2017-11-15T09:11:42.097Z,18.40
2017-11-15T09:14:08.238Z,19.53
2017-11-15T09:16:34.452Z,18.03
2017-11-15T09:19:00.640Z,18.80
2017-11-15T09:21:27.560Z,18.17
2017-11-15T09:23:53.798Z,18.90
2017-11-15T09:26:20.835Z,17.60
2017-11-15T09:28:46.971Z,17.57
2017-11-15T09:31:13.098Z,16.90
2017-11-15T09:33:39.234Z,15.60
2017-11-15T09:36:05.326Z,17.50
2017-11-15T09:38:31.455Z,17.70
2017-11-15T09:40:57.678Z,18.27
2017-11-15T09:43:23.826Z,19.53
2017-11-15T09:45:49.931Z,18.53
2017-11-15T09:48:16.083Z,18.90
2017-11-15T09:50:42.187Z,18.00
2017-11-15T09:53:08.646Z,18.30
2017-11-15T09:55:34.955Z,20.30
2017-11-15T09:58:01.098Z,19.97
2017-11-15T10:00:27.224Z,20.17
2017-11-15T10:02:53.347Z,18.57
2017-11-15T10:05:19.460Z,18.07
2017-11-15T10:07:45.539Z,17.60
2017-11-15T10:10:11.806Z,17.80
2017-11-15T10:12:38.666Z,19.60
2017-11-15T10:15:05.519Z,18.90
2017-11-15T10:17:32.510Z,18.43
2017-11-15T10:19:58.720Z,18.00
2017-11-15T10:22:25.820Z,18.40
2017-11-15T10:24:52.155Z,18.23
2017-11-15T10:30:12.658Z,18.03
2017-11-15T10:32:38.814Z,17.67
2017-11-15T10:35:04.968Z,19.57
2017-11-15T10:37:32.304Z,20.27
2017-11-15T10:39:59.331Z,20.93
2017-11-15T10:42:25.456Z,19.90
2017-11-15T10:44:51.856Z,22.00
2017-11-15T10:47:17.964Z,19.50
2017-11-15T10:49:44.083Z,19.47
2017-11-15T10:52:10.239Z,19.90
2017-11-15T10:54:36.444Z,18.80
2017-11-15T10:57:02.535Z,19.37
2017-11-15T10:59:28.662Z,19.57
2017-11-15T11:01:55.499Z,18.87
2017-11-15T11:04:21.616Z,20.63
2017-11-15T11:06:47.769Z,20.40
2017-11-15T11:09:13.862Z,19.10
2017-11-15T11:11:40.037Z,19.43
2017-11-15T11:14:06.202Z,19.57
2017-11-15T11:16:33.092Z,20.30
2017-11-15T11:18:59.205Z,18.77
2017-11-15T11:21:26.146Z,20.97
2017-11-15T11:23:52.249Z,20.57
2017-11-15T11:26:18.387Z,18.33
2017-11-15T11:28:44.522Z,18.50
2017-11-15T11:31:10.607Z,20.13
2017-11-15T11:33:36.752Z,17.20
2017-11-15T11:36:02.932Z,17.00
2017-11-15T11:38:29.058Z,16.93
2017-11-15T11:40:55.219Z,16.80
2017-11-15T11:43:21.338Z,18.73
2017-11-15T11:45:47.462Z,18.83
2017-11-15T11:48:13.611Z,18.40
2017-11-15T11:50:39.799Z,17.67
2017-11-15T11:53:05.962Z,18.67
2017-11-15T11:55:32.800Z,18.13
2017-11-15T11:57:58.912Z,16.50
2017-11-15T12:00:25.042Z,19.97
2017-11-15T12:02:51.139Z,18.10
2017-11-15T12:05:17.258Z,19.23
2017-11-15T12:07:44.138Z,17.57
2017-11-15T12:10:10.282Z,15.40
2017-11-15T12:12:36.412Z,15.60
2017-11-15T12:15:03.250Z,16.10
2017-11-15T12:17:29.343Z,16.90
2017-11-15T12:19:55.570Z,16.97
2017-11-15T12:22:21.739Z,15.93
2017-11-15T12:24:47.828Z,16.20
2017-11-15T12:27:13.944Z,16.87
2017-11-15T12:29:40.807Z,18.20
2017-11-15T12:32:07.671Z,15.60
2017-11-15T12:34:33.805Z,15.83
2017-11-15T12:37:00.638Z,16.47
2017-11-15T12:39:26.832Z,14.30
2017-11-15T12:41:52.959Z,16.47
2017-11-15T12:44:19.042Z,16.40
2017-11-15T12:46:45.197Z,15.33
2017-11-15T12:49:11.339Z,16.23
2017-11-15T12:51:38.179Z,15.60
2017-11-15T12:54:04.267Z,15.30
2017-11-15T12:56:30.391Z,15.20
2017-11-15T12:58:56.475Z,15.20
2017-11-15T13:01:22.563Z,16.90
2017-11-15T13:03:48.689Z,14.50
2017-11-15T13:06:15.546Z,14.83
2017-11-15T13:08:41.707Z,15.30
2017-11-15T13:11:07.850Z,14.97
2017-11-15T13:13:33.959Z,15.30
2017-11-15T13:16:00.823Z,15.27
2017-11-15T13:18:27.712Z,14.77
2017-11-15T13:20:53.844Z,14.50
2017-11-15T13:23:19.946Z,15.97
2017-11-15T13:25:46.818Z,14.00
2017-11-15T13:28:13.064Z,13.87
2017-11-15T13:30:39.174Z,14.70
2017-11-15T13:33:05.323Z,13.17
2017-11-15T13:35:32.179Z,13.70
2017-11-15T13:37:58.995Z,13.80
2017-11-15T13:40:25.236Z,13.70
2017-11-15T13:42:51.344Z,13.73
2017-11-15T13:45:18.308Z,13.20
2017-11-15T13:47:44.450Z,15.13
2017-11-15T13:50:10.615Z,14.47
2017-11-15T13:52:36.892Z,15.10
2017-11-15T13:57:36.653Z,16.40
2017-11-15T14:00:02.816Z,16.77
2017-11-15T14:02:28.892Z,14.20
2017-11-15T14:04:54.989Z,15.87
2017-11-15T14:07:21.098Z,15.00
2017-11-15T14:09:47.922Z,14.57
2017-11-15T14:12:14.018Z,15.40
2017-11-15T14:14:40.130Z,16.73
2017-11-15T14:17:06.954Z,14.63
2017-11-15T14:19:33.311Z,16.00
2017-11-15T14:21:59.432Z,15.67
2017-11-15T14:24:25.522Z,17.03
2017-11-15T14:26:51.610Z,14.13
2017-11-15T14:29:18.570Z,15.83
2017-11-15T14:31:44.666Z,14.53
2017-11-15T14:34:10.830Z,14.10
2017-11-15T14:36:37.190Z,15.93
2017-11-15T14:39:03.286Z,16.37
2017-11-15T14:41:29.525Z,16.93
2017-11-15T14:43:55.645Z,15.93
2017-11-15T14:46:21.792Z,17.77
2017-11-15T14:48:48.009Z,15.67
2017-11-15T14:51:14.906Z,15.77
2017-11-15T14:53:47.145Z,17.53
2017-11-15T14:56:13.303Z,16.10
2017-11-15T14:58:39.473Z,15.53
2017-11-15T15:01:05.586Z,16.90
2017-11-15T15:03:31.687Z,17.50
2017-11-15T15:05:58.546Z,19.70
2017-11-15T15:08:25.419Z,19.27
2017-11-15T15:10:51.563Z,17.90
2017-11-15T15:13:17.694Z,19.60
2017-11-15T15:15:43.763Z,21.50
2017-11-15T15:18:09.895Z,20.60
2017-11-15T15:20:36.063Z,19.40
2017-11-15T15:23:02.237Z,20.10
2017-11-15T15:25:28.365Z,20.20
2017-11-15T15:27:54.475Z,21.50
2017-11-15T15:30:20.587Z,21.90
2017-11-15T15:32:46.693Z,20.23
2017-11-15T15:35:13.689Z,24.70
2017-11-15T15:37:40.385Z,23.40
2017-11-15T15:40:07.590Z,21.97
2017-11-15T15:42:34.241Z,25.77
2017-11-15T15:45:00.379Z,24.80
2017-11-15T15:47:26.472Z,25.17
2017-11-15T15:49:53.343Z,26.47
2017-11-15T15:52:19.431Z,23.13
2017-11-15T15:54:45.545Z,22.30
2017-11-15T15:57:11.696Z,22.23
2017-11-15T15:59:37.902Z,24.77
2017-11-15T16:02:04.006Z,28.47
2017-11-15T16:04:30.119Z,25.40
2017-11-15T16:06:56.315Z,24.50
2017-11-15T16:09:23.199Z,27.10
2017-11-15T16:11:49.310Z,24.43
2017-11-15T16:14:16.150Z,25.30
2017-11-15T16:16:43.011Z,24.30
2017-11-15T16:19:09.901Z,25.33
2017-11-15T16:21:36.922Z,24.40
2017-11-15T16:24:03.751Z,26.00
2017-11-15T16:26:29.889Z,24.57
2017-11-15T16:28:56.005Z,25.77
2017-11-15T16:31:22.172Z,27.10
2017-11-15T16:33:48.269Z,25.70
2017-11-15T16:36:14.390Z,27.67
2017-11-15T16:38:40.554Z,26.20
2017-11-15T16:41:06.658Z,25.87
2017-11-15T16:43:32.775Z,28.93
2017-11-15T16:45:58.894Z,24.97
2017-11-15T16:48:25.025Z,28.00
2017-11-15T16:50:51.302Z,28.30
2017-11-15T16:53:18.497Z,27.70
2017-11-15T16:55:44.587Z,26.60
2017-11-15T16:58:10.744Z,26.60
2017-11-15T17:00:37.765Z,27.43
2017-11-15T17:03:03.918Z,27.87
2017-11-15T17:05:30.055Z,26.20
2017-11-15T17:07:56.170Z,29.57
2017-11-15T17:10:22.272Z,23.87
2017-11-15T17:12:48.422Z,28.30
2017-11-15T17:15:14.530Z,26.60
2017-11-15T17:17:41.419Z,28.53
2017-11-15T17:20:07.561Z,27.63
2017-11-15T17:22:33.719Z,28.83
2017-11-15T17:24:59.876Z,31.80
2017-11-15T17:27:25.973Z,30.53
2017-11-15T17:29:52.143Z,30.23
2017-11-15T17:32:18.392Z,32.67
2017-11-15T17:34:44.567Z,29.70
2017-11-15T17:37:11.447Z,32.13
2017-11-15T17:39:37.612Z,31.27
2017-11-15T17:42:04.930Z,31.50
2017-11-15T17:44:31.075Z,32.43
2017-11-15T17:46:57.174Z,33.20
2017-11-15T17:49:23.383Z,31.40
2017-11-15T17:51:49.501Z,31.83
2017-11-15T17:54:15.582Z,32.17
2017-11-15T17:56:41.679Z,34.47
2017-11-15T17:59:07.822Z,35.50
2017-11-15T18:01:33.923Z,33.20
2017-11-15T18:04:00.803Z,33.73
2017-11-15T18:06:26.901Z,34.60
2017-11-15T18:08:53.030Z,35.30
2017-11-15T18:11:19.154Z,33.47
2017-11-15T18:13:45.362Z,37.03
2017-11-15T18:16:11.515Z,36.67
2017-11-15T18:18:37.812Z,35.80
2017-11-15T18:21:04.654Z,34.73
2017-11-15T18:23:30.873Z,36.60
2017-11-15T18:25:56.979Z,34.90
2017-11-15T18:28:23.095Z,34.13
2017-11-15T18:30:49.274Z,38.20
2017-11-15T18:33:15.385Z,41.47
2017-11-15T18:35:41.505Z,44.20
2017-11-15T18:38:08.398Z,37.60
2017-11-15T18:40:34.586Z,44.30
2017-11-15T18:43:00.700Z,35.80
2017-11-15T18:45:27.342Z,33.47
2017-11-15T18:47:53.516Z,35.13
2017-11-15T18:50:20.390Z,33.73
2017-11-15T18:52:47.229Z,35.97
2017-11-15T18:55:14.064Z,41.10
2017-11-15T18:57:40.293Z,37.90
2017-11-15T19:00:06.579Z,36.47
2017-11-15T19:02:32.731Z,32.47
2017-11-15T19:04:59.040Z,31.03
2017-11-15T19:07:25.133Z,39.83
2017-11-15T19:09:51.253Z,32.50
2017-11-15T19:12:17.374Z,32.60
2017-11-15T19:14:44.216Z,34.80
2017-11-15T19:17:11.056Z,35.53
2017-11-15T19:19:37.226Z,37.90
2017-11-15T19:22:04.057Z,35.83
2017-11-15T19:24:30.195Z,30.80
2017-11-15T19:26:56.368Z,36.63
2017-11-15T19:29:22.473Z,30.67
2017-11-15T19:31:49.308Z,32.57
2017-11-15T19:34:15.486Z,37.00
2017-11-15T19:36:42.382Z,33.67
2017-11-15T19:39:08.591Z,33.67
2017-11-15T19:41:34.688Z,33.20
2017-11-15T19:44:00.778Z,31.80
2017-11-15T19:46:26.890Z,30.77
2017-11-15T19:48:53.115Z,35.83
2017-11-15T19:51:19.508Z,32.97
2017-11-15T19:53:45.599Z,28.43
2017-11-15T19:56:11.746Z,27.30
2017-11-15T19:58:38.636Z,29.57
2017-11-15T20:01:04.756Z,27.70
2017-11-15T20:03:30.903Z,29.60
2017-11-15T20:05:56.990Z,31.00
2017-11-15T20:08:23.080Z,30.73
2017-11-15T20:10:49.186Z,32.47
2017-11-15T20:13:15.307Z,29.97
2017-11-15T20:15:41.449Z,33.40
2017-11-15T20:18:07.638Z,34.90
2017-11-15T20:20:33.825Z,32.20
2017-11-15T20:22:59.967Z,38.60
2017-11-15T20:25:26.076Z,48.37
2017-11-15T20:27:52.290Z,48.97
2017-11-15T20:30:18.382Z,44.30
2017-11-15T20:32:44.499Z,41.87
2017-11-15T20:35:10.735Z,42.90
2017-11-15T20:37:36.855Z,32.07
2017-11-15T20:40:03.007Z,47.70
2017-11-15T20:42:29.126Z,35.40
2017-11-15T20:44:55.242Z,62.57
2017-11-15T20:47:21.373Z,46.70
2017-11-15T20:49:47.529Z,55.17
2017-11-15T20:52:13.659Z,40.73
2017-11-15T20:54:39.755Z,46.30
2017-11-15T20:57:05.880Z,42.47
2017-11-15T20:59:31.994Z,44.50
2017-11-15T21:01:58.099Z,35.37
2017-11-15T21:04:24.216Z,39.43
2017-11-15T21:06:50.347Z,32.03
2017-11-15T21:09:16.448Z,33.47
2017-11-15T21:11:42.567Z,34.73
2017-11-15T21:14:08.693Z,29.10
2017-11-15T21:16:34.782Z,37.70
2017-11-15T21:19:01.741Z,29.17
2017-11-15T21:21:28.752Z,28.70
2017-11-15T21:23:54.855Z,30.50
2017-11-15T21:26:20.996Z,33.80
2017-11-15T21:28:47.081Z,35.07
2017-11-15T21:31:13.198Z,30.63
2017-11-15T21:33:39.332Z,32.20
2017-11-15T21:36:05.451Z,31.07
2017-11-15T21:38:31.608Z,28.93
2017-11-15T21:40:57.742Z,35.67
2017-11-15T21:43:23.851Z,32.03
2017-11-15T21:45:49.957Z,30.00
2017-11-15T21:48:16.117Z,33.67
2017-11-15T21:50:42.979Z,30.53
2017-11-15T21:53:09.869Z,34.27
2017-11-15T21:55:35.995Z,34.77
2017-11-15T21:58:02.086Z,33.10
2017-11-15T22:00:28.340Z,33.33
2017-11-15T22:02:55.372Z,31.77
2017-11-15T22:05:21.473Z,33.90
2017-11-15T22:07:47.574Z,34.57
2017-11-15T22:10:14.459Z,33.83
2017-11-15T22:12:40.577Z,35.20
2017-11-15T22:15:07.430Z,35.30
2017-11-15T22:17:33.554Z,33.10
2017-11-15T22:19:59.627Z,32.10
2017-11-15T22:22:25.748Z,31.93
2017-11-15T22:24:52.671Z,31.10
2017-11-15T22:27:18.829Z,33.50
2017-11-15T22:29:45.668Z,32.27
2017-11-15T22:32:11.798Z,33.90
2017-11-15T22:34:38.074Z,30.70
2017-11-15T22:37:04.181Z,32.77
2017-11-15T22:39:30.369Z,36.60
2017-11-15T22:41:56.442Z,32.47
2017-11-15T22:44:22.559Z,34.00
2017-11-15T22:46:48.718Z,31.63
2017-11-15T22:49:14.808Z,31.70
2017-11-15T22:51:41.643Z,33.57
2017-11-15T22:54:07.824Z,32.27
2017-11-15T22:56:33.924Z,32.60
2017-11-15T22:59:00.755Z,37.33
2017-11-15T23:01:27.078Z,30.10
2017-11-15T23:03:53.208Z,31.97
2017-11-15T23:06:19.352Z,32.23
2017-11-15T23:08:45.491Z,40.10
2017-11-15T23:11:11.599Z,32.90
2017-11-15T23:13:37.752Z,34.07
2017-11-15T23:16:04.020Z,34.27
2017-11-15T23:18:30.131Z,33.53
2017-11-15T23:20:56.235Z,33.50
2017-11-15T23:23:22.418Z,32.27
2017-11-15T23:25:48.534Z,35.23
2017-11-15T23:28:14.642Z,35.27
2017-11-15T23:30:41.723Z,34.47
2017-11-15T23:33:07.848Z,32.50
2017-11-15T23:35:34.671Z,34.83
2017-11-15T23:38:00.827Z,33.70
2017-11-15T23:40:27.006Z,34.00
2017-11-15T23:42:53.100Z,37.00
2017-11-15T23:45:19.216Z,39.27
2017-11-15T23:47:45.371Z,34.27
2017-11-15T23:50:12.124Z,36.30
2017-11-15T23:52:38.265Z,34.13
2017-11-15T23:55:04.377Z,34.53
2017-11-15T23:57:30.492Z,34.27
2017-11-15T23:59:56.582Z,31.60
